createdAt,value
2017-08-13T00:00:34.037Z,3.37
2017-08-13T00:03:08.348Z,3.50
2017-08-13T00:05:42.676Z,3.10
2017-08-13T00:08:16.924Z,3.50
2017-08-13T00:10:51.379Z,3.40
2017-08-13T00:13:25.560Z,3.33
2017-08-13T00:15:59.768Z,3.57
2017-08-13T00:18:34.152Z,3.10
2017-08-13T00:21:08.568Z,3.43
2017-08-13T00:23:42.845Z,3.80
2017-08-13T00:26:17.065Z,3.60
2017-08-13T00:28:51.267Z,3.43
2017-08-13T00:31:25.668Z,3.70
2017-08-13T00:33:59.945Z,3.80
2017-08-13T00:36:35.163Z,3.50
2017-08-13T00:39:09.585Z,3.47
2017-08-13T00:41:43.956Z,3.70
2017-08-13T00:44:18.323Z,3.47
2017-08-13T00:46:52.533Z,3.83
2017-08-13T00:49:26.891Z,4.00
2017-08-13T00:52:01.203Z,4.30
2017-08-13T00:54:35.376Z,3.63
2017-08-13T00:57:09.744Z,3.93
2017-08-13T00:59:44.019Z,3.50
2017-08-13T01:02:19.168Z,4.20
2017-08-13T01:04:53.392Z,3.40
2017-08-13T01:07:27.575Z,4.00
2017-08-13T01:10:01.810Z,3.73
2017-08-13T01:12:36.130Z,3.87
2017-08-13T01:15:10.499Z,3.57
2017-08-13T01:17:44.707Z,3.60
2017-08-13T01:20:18.972Z,4.33
2017-08-13T01:22:53.248Z,3.83
2017-08-13T01:25:27.335Z,3.87
2017-08-13T01:28:01.564Z,4.17
2017-08-13T01:30:35.748Z,4.27
2017-08-13T01:33:11.074Z,3.80
2017-08-13T01:35:45.333Z,3.73
2017-08-13T01:38:19.524Z,3.60
2017-08-13T01:40:53.738Z,4.30
2017-08-13T01:43:27.892Z,4.10
2017-08-13T01:46:02.088Z,3.80
2017-08-13T01:48:36.430Z,3.73
2017-08-13T01:51:10.605Z,3.93
2017-08-13T01:53:44.952Z,4.00
2017-08-13T01:56:19.109Z,4.47
2017-08-13T01:58:53.200Z,4.50
2017-08-13T02:01:27.464Z,3.80
2017-08-13T02:04:01.832Z,4.43
2017-08-13T02:06:37.281Z,4.30
2017-08-13T02:09:11.709Z,4.07
2017-08-13T02:11:45.924Z,3.83
2017-08-13T02:14:20.043Z,3.70
2017-08-13T02:16:54.372Z,3.73
2017-08-13T02:19:28.656Z,3.87
2017-08-13T02:22:02.965Z,4.10
2017-08-13T02:24:37.160Z,3.60
2017-08-13T02:27:11.604Z,3.57
2017-08-13T02:29:45.919Z,4.00
2017-08-13T02:32:20.091Z,4.13
2017-08-13T02:34:54.304Z,4.00
2017-08-13T02:37:29.460Z,4.30
2017-08-13T02:40:03.729Z,4.10
2017-08-13T02:42:38.052Z,3.90
2017-08-13T02:45:12.241Z,4.20
2017-08-13T02:47:46.496Z,4.07
2017-08-13T02:50:20.771Z,4.20
2017-08-13T02:52:55.393Z,4.37
2017-08-13T02:55:29.529Z,3.90
2017-08-13T02:58:03.673Z,3.80
2017-08-13T03:00:38.071Z,4.27
2017-08-13T03:03:13.410Z,3.80
2017-08-13T03:05:47.894Z,3.80
2017-08-13T03:08:22.236Z,3.93
2017-08-13T03:10:57.594Z,3.90
2017-08-13T03:13:31.679Z,4.10
2017-08-13T03:16:06.048Z,4.57
2017-08-13T03:18:40.228Z,3.67
2017-08-13T03:21:14.421Z,4.00
2017-08-13T03:23:48.647Z,4.10
2017-08-13T03:26:22.968Z,3.97
2017-08-13T03:28:57.208Z,4.43
2017-08-13T03:31:31.619Z,3.90
2017-08-13T03:34:05.907Z,3.70
2017-08-13T03:36:40.236Z,3.70
2017-08-13T03:39:14.721Z,3.90
2017-08-13T03:41:48.935Z,3.80
2017-08-13T03:44:23.170Z,3.57
2017-08-13T03:46:57.410Z,3.70
2017-08-13T03:49:31.573Z,3.60
2017-08-13T03:52:05.786Z,3.90
2017-08-13T03:54:40.204Z,3.53
2017-08-13T03:57:14.233Z,3.73
2017-08-13T03:59:48.515Z,3.43
2017-08-13T04:02:22.898Z,3.70
2017-08-13T04:04:57.188Z,3.63
2017-08-13T04:07:31.302Z,3.70
2017-08-13T04:10:05.592Z,3.90
2017-08-13T04:12:40.981Z,3.60
2017-08-13T04:15:15.155Z,4.10
2017-08-13T04:17:49.435Z,3.60
2017-08-13T04:20:23.808Z,4.17
2017-08-13T04:22:57.988Z,3.70
2017-08-13T04:25:32.115Z,3.33
2017-08-13T04:28:06.526Z,3.93
2017-08-13T04:30:41.799Z,4.03
2017-08-13T04:33:16.038Z,3.97
2017-08-13T04:35:50.230Z,3.53
2017-08-13T04:38:24.730Z,3.43
2017-08-13T04:40:58.867Z,3.47
2017-08-13T04:43:33.123Z,3.70
2017-08-13T04:46:07.344Z,4.00
2017-08-13T04:48:41.537Z,3.40
2017-08-13T04:51:15.839Z,3.60
2017-08-13T04:53:50.182Z,3.40
2017-08-13T04:56:24.593Z,3.20
2017-08-13T04:58:58.979Z,3.60
2017-08-13T05:01:33.303Z,3.20
2017-08-13T05:04:07.885Z,3.50
2017-08-13T05:06:42.090Z,3.10
2017-08-13T05:09:16.408Z,3.70
2017-08-13T05:11:50.588Z,3.37
2017-08-13T05:14:24.698Z,3.47
2017-08-13T05:16:58.921Z,3.60
2017-08-13T05:19:33.228Z,3.10
2017-08-13T05:22:07.645Z,3.63
2017-08-13T05:24:41.913Z,3.43
2017-08-13T05:27:16.096Z,3.07
2017-08-13T05:29:50.289Z,3.10
2017-08-13T05:32:24.565Z,3.50
2017-08-13T05:34:58.797Z,3.50
2017-08-13T05:37:32.936Z,3.00
2017-08-13T05:40:07.090Z,3.27
2017-08-13T05:42:41.234Z,3.20
2017-08-13T05:45:15.552Z,3.10
2017-08-13T05:47:49.781Z,3.70
2017-08-13T05:50:24.139Z,3.97
2017-08-13T05:52:58.368Z,2.80
2017-08-13T05:55:32.644Z,3.30
2017-08-13T05:58:06.925Z,3.40
2017-08-13T06:00:41.946Z,3.30
2017-08-13T06:03:16.192Z,3.60
2017-08-13T06:05:50.455Z,3.90
2017-08-13T06:08:24.824Z,3.30
2017-08-13T06:10:59.596Z,3.50
2017-08-13T06:13:33.888Z,3.60
2017-08-13T06:16:08.077Z,3.70
2017-08-13T06:18:42.764Z,3.53
2017-08-13T06:21:18.041Z,3.27
2017-08-13T06:23:52.409Z,3.50
2017-08-13T06:26:26.984Z,3.70
2017-08-13T06:29:01.567Z,3.57
2017-08-13T06:31:35.923Z,3.90
2017-08-13T06:34:10.225Z,3.07
2017-08-13T06:36:44.604Z,3.50
2017-08-13T06:39:18.799Z,3.70
2017-08-13T06:41:53.113Z,3.70
2017-08-13T06:44:27.414Z,3.70
2017-08-13T06:47:01.661Z,3.17
2017-08-13T06:49:35.939Z,3.70
2017-08-13T06:52:10.053Z,2.97
2017-08-13T06:54:44.216Z,3.40
2017-08-13T06:57:18.435Z,3.20
2017-08-13T06:59:52.817Z,2.80
2017-08-13T07:02:27.169Z,3.03
2017-08-13T07:05:01.475Z,3.10
2017-08-13T07:07:36.012Z,3.63
2017-08-13T07:10:10.344Z,2.77
2017-08-13T07:12:44.601Z,2.90
2017-08-13T07:15:18.950Z,2.60
2017-08-13T07:17:53.239Z,2.70
2017-08-13T07:20:27.561Z,3.17
2017-08-13T07:23:01.821Z,3.20
2017-08-13T07:25:36.082Z,2.80
2017-08-13T07:28:10.452Z,3.07
2017-08-13T07:30:44.560Z,2.83
2017-08-13T07:33:18.838Z,2.70
2017-08-13T07:35:53.041Z,2.60
2017-08-13T07:38:27.239Z,2.70
2017-08-13T07:41:01.505Z,2.33
2017-08-13T07:43:35.784Z,2.50
2017-08-13T07:46:10.115Z,4.40
2017-08-13T07:48:44.263Z,2.50
2017-08-13T07:51:18.566Z,3.63
2017-08-13T07:53:52.903Z,2.10
2017-08-13T07:56:27.091Z,2.60
2017-08-13T07:59:01.381Z,2.07
2017-08-13T08:01:36.084Z,2.30
2017-08-13T08:04:10.905Z,2.50
2017-08-13T08:06:45.166Z,2.80
2017-08-13T08:09:20.345Z,4.03
2017-08-13T08:11:54.624Z,2.50
2017-08-13T08:14:28.855Z,2.70
2017-08-13T08:17:02.960Z,2.33
2017-08-13T08:19:37.271Z,2.40
2017-08-13T08:22:11.539Z,2.30
2017-08-13T08:24:45.735Z,3.53
2017-08-13T08:27:20.008Z,3.50
2017-08-13T08:29:54.456Z,2.80
2017-08-13T08:32:28.789Z,2.60
2017-08-13T08:35:03.138Z,2.77
2017-08-13T08:37:37.477Z,2.57
2017-08-13T08:40:11.748Z,3.37
2017-08-13T08:42:46.081Z,2.40
2017-08-13T08:45:20.413Z,2.47
2017-08-13T08:47:54.708Z,2.10
2017-08-13T08:50:28.861Z,2.00
2017-08-13T08:53:03.222Z,2.47
2017-08-13T08:55:37.668Z,2.43
2017-08-13T08:58:12.019Z,2.93
2017-08-13T09:00:46.228Z,2.50
2017-08-13T09:03:20.511Z,2.27
2017-08-13T09:05:54.867Z,2.30
2017-08-13T09:08:29.056Z,2.37
2017-08-13T09:11:03.303Z,2.37
2017-08-13T09:13:37.532Z,2.50
2017-08-13T09:16:11.759Z,2.60
2017-08-13T09:18:46.164Z,3.60
2017-08-13T09:21:20.372Z,2.40
2017-08-13T09:23:54.580Z,2.70
2017-08-13T09:26:28.766Z,2.30
2017-08-13T09:29:03.259Z,2.27
2017-08-13T09:31:37.486Z,2.80
2017-08-13T09:34:11.716Z,2.83
2017-08-13T09:36:45.929Z,2.30
2017-08-13T09:39:20.106Z,3.80
2017-08-13T09:41:54.496Z,2.60
2017-08-13T09:44:28.813Z,2.10
2017-08-13T09:47:03.117Z,2.33
2017-08-13T09:49:37.325Z,2.40
2017-08-13T09:52:11.540Z,2.40
2017-08-13T09:54:45.944Z,2.13
2017-08-13T09:57:20.304Z,2.20
2017-08-13T09:59:54.520Z,2.93
2017-08-13T10:02:28.836Z,2.20
2017-08-13T10:05:03.166Z,2.33
2017-08-13T10:07:37.218Z,2.60
2017-08-13T10:10:11.542Z,2.30
2017-08-13T10:12:45.731Z,3.40
2017-08-13T10:15:19.967Z,2.90
2017-08-13T10:17:54.236Z,2.10
2017-08-13T10:20:28.411Z,2.20
2017-08-13T10:23:02.703Z,2.37
2017-08-13T10:25:37.040Z,2.50
2017-08-13T10:28:11.310Z,2.10
2017-08-13T10:30:45.583Z,2.60
2017-08-13T10:33:19.803Z,3.40
2017-08-13T10:35:54.212Z,2.40
2017-08-13T10:38:28.565Z,2.30
2017-08-13T10:41:02.768Z,2.17
2017-08-13T10:43:37.056Z,1.80
2017-08-13T10:46:11.389Z,3.00
2017-08-13T10:48:45.569Z,1.83
2017-08-13T10:51:19.813Z,3.47
2017-08-13T10:53:54.004Z,1.97
2017-08-13T10:56:28.375Z,2.27
2017-08-13T10:59:02.620Z,2.00
2017-08-13T11:01:36.853Z,2.20
2017-08-13T11:04:11.185Z,2.10
2017-08-13T11:06:45.668Z,3.70
2017-08-13T11:09:20.060Z,3.43
2017-08-13T11:11:55.033Z,2.20
2017-08-13T11:14:29.364Z,2.10
2017-08-13T11:17:03.527Z,2.40
2017-08-13T11:19:37.978Z,2.40
2017-08-13T11:22:12.204Z,2.40
2017-08-13T11:24:46.587Z,2.30
2017-08-13T11:27:20.832Z,2.60
2017-08-13T11:29:55.127Z,2.10
2017-08-13T11:32:29.392Z,2.20
2017-08-13T11:35:03.592Z,2.00
2017-08-13T11:37:37.978Z,2.47
2017-08-13T11:40:12.219Z,2.40
2017-08-13T11:42:46.385Z,2.40
2017-08-13T11:45:20.714Z,2.40
2017-08-13T11:47:54.881Z,3.10
2017-08-13T11:50:29.100Z,2.30
2017-08-13T11:53:03.543Z,2.10
2017-08-13T11:55:37.776Z,2.70
2017-08-13T11:58:12.053Z,2.57
2017-08-13T12:00:46.791Z,2.07
2017-08-13T12:03:20.975Z,2.90
2017-08-13T12:05:55.617Z,2.23
2017-08-13T12:08:29.636Z,2.50
2017-08-13T12:11:03.840Z,2.57
2017-08-13T12:13:37.953Z,2.20
2017-08-13T12:16:12.264Z,2.13
2017-08-13T12:18:46.583Z,2.10
2017-08-13T12:21:20.788Z,2.53
2017-08-13T12:23:55.176Z,3.07
2017-08-13T12:26:29.362Z,2.33
2017-08-13T12:29:03.634Z,2.53
2017-08-13T12:31:37.985Z,2.50
2017-08-13T12:34:12.248Z,2.30
2017-08-13T12:36:46.340Z,2.40
2017-08-13T12:39:20.620Z,2.50
2017-08-13T12:41:54.875Z,2.60
2017-08-13T12:44:29.104Z,2.40
2017-08-13T12:47:03.400Z,2.90
2017-08-13T12:49:37.515Z,2.30
2017-08-13T12:52:11.947Z,2.50
2017-08-13T12:54:46.127Z,2.50
2017-08-13T12:57:20.323Z,2.67
2017-08-13T12:59:54.583Z,2.70
2017-08-13T13:02:28.912Z,2.43
2017-08-13T13:05:03.067Z,2.60
2017-08-13T13:07:37.447Z,3.00
2017-08-13T13:10:11.711Z,2.50
2017-08-13T13:12:46.068Z,3.20
2017-08-13T13:15:20.204Z,2.97
2017-08-13T13:17:54.346Z,2.77
2017-08-13T13:20:28.635Z,2.50
2017-08-13T13:23:02.805Z,2.73
2017-08-13T13:25:36.884Z,2.67
2017-08-13T13:28:10.984Z,2.50
2017-08-13T13:30:45.122Z,2.50
2017-08-13T13:33:19.348Z,2.50
2017-08-13T13:35:53.532Z,2.50
2017-08-13T13:38:27.760Z,2.70
2017-08-13T13:41:02.095Z,2.70
2017-08-13T13:43:36.179Z,2.87
2017-08-13T13:46:10.383Z,2.87
2017-08-13T13:48:44.550Z,2.70
2017-08-13T13:51:18.797Z,2.70
2017-08-13T13:53:52.891Z,3.27
2017-08-13T13:56:27.076Z,3.00
2017-08-13T13:59:01.290Z,2.70
2017-08-13T14:01:35.701Z,2.70
2017-08-13T14:04:09.792Z,2.83
2017-08-13T14:06:44.050Z,3.10
2017-08-13T14:09:18.139Z,2.40
2017-08-13T14:11:52.484Z,2.50
2017-08-13T14:14:26.688Z,2.60
2017-08-13T14:17:00.831Z,2.50
2017-08-13T14:19:35.005Z,2.40
2017-08-13T14:22:09.254Z,2.27
2017-08-13T14:24:43.314Z,2.60
2017-08-13T14:27:17.499Z,2.43
2017-08-13T14:29:51.676Z,2.60
2017-08-13T14:32:25.896Z,2.43
2017-08-13T14:34:59.956Z,2.33
2017-08-13T14:37:34.194Z,2.33
2017-08-13T14:40:08.424Z,2.30
2017-08-13T14:42:42.601Z,2.60
2017-08-13T14:45:16.757Z,2.53
2017-08-13T14:47:50.865Z,2.60
2017-08-13T14:50:25.107Z,2.50
2017-08-13T14:52:59.500Z,2.40
2017-08-13T14:55:33.685Z,2.20
2017-08-13T14:58:08.931Z,2.40
2017-08-13T15:00:43.233Z,2.63
2017-08-13T15:03:17.334Z,2.40
2017-08-13T15:05:51.634Z,2.40
2017-08-13T15:08:25.838Z,2.37
2017-08-13T15:11:00.044Z,2.17
2017-08-13T15:13:34.332Z,2.50
2017-08-13T15:16:08.597Z,2.50
2017-08-13T15:18:42.896Z,2.20
2017-08-13T15:21:17.254Z,2.40
2017-08-13T15:23:51.546Z,2.50
2017-08-13T15:26:25.761Z,2.50
2017-08-13T15:29:00.073Z,2.17
2017-08-13T15:31:34.248Z,2.30
2017-08-13T15:34:08.569Z,2.20
2017-08-13T15:36:42.779Z,2.20
2017-08-13T15:39:17.089Z,2.30
2017-08-13T15:41:51.384Z,2.23
2017-08-13T15:44:25.694Z,2.60
2017-08-13T15:46:59.873Z,2.50
2017-08-13T15:49:34.180Z,2.20
2017-08-13T15:52:08.395Z,2.10
2017-08-13T15:54:42.514Z,2.30
2017-08-13T15:57:16.764Z,2.87
2017-08-13T15:59:51.024Z,2.30
2017-08-13T16:02:25.273Z,2.73
2017-08-13T16:04:59.647Z,2.60
2017-08-13T16:07:33.893Z,2.30
2017-08-13T16:10:08.112Z,2.57
2017-08-13T16:12:42.412Z,2.73
2017-08-13T16:15:16.852Z,2.63
2017-08-13T16:17:51.239Z,2.43
2017-08-13T16:20:25.452Z,2.30
2017-08-13T16:22:59.866Z,2.87
2017-08-13T16:25:33.990Z,2.60
2017-08-13T16:28:08.509Z,2.70
2017-08-13T16:30:42.575Z,2.53
2017-08-13T16:33:17.054Z,3.00
2017-08-13T16:35:52.117Z,2.63
2017-08-13T16:38:26.411Z,2.40
2017-08-13T16:41:00.807Z,2.50
2017-08-13T16:43:35.081Z,2.77
2017-08-13T16:46:09.373Z,2.40
2017-08-13T16:48:43.552Z,2.50
2017-08-13T16:51:18.046Z,2.27
2017-08-13T16:53:52.292Z,2.93
2017-08-13T16:56:26.540Z,2.53
2017-08-13T16:59:00.729Z,2.53
2017-08-13T17:01:35.063Z,2.33
2017-08-13T17:04:09.274Z,2.53
2017-08-13T17:06:43.632Z,2.50
2017-08-13T17:09:18.065Z,2.90
2017-08-13T17:11:52.364Z,2.30
2017-08-13T17:14:26.695Z,2.40
2017-08-13T17:17:00.900Z,2.70
2017-08-13T17:19:35.173Z,2.47
2017-08-13T17:22:09.604Z,2.80
2017-08-13T17:24:43.917Z,2.50
2017-08-13T17:27:18.142Z,2.70
2017-08-13T17:29:52.395Z,2.60
2017-08-13T17:32:26.776Z,2.80
2017-08-13T17:35:00.996Z,2.53
2017-08-13T17:37:35.495Z,2.70
2017-08-13T17:40:09.836Z,2.57
2017-08-13T17:42:44.458Z,2.90
2017-08-13T17:45:18.797Z,2.70
2017-08-13T17:47:53.197Z,2.63
2017-08-13T17:50:27.544Z,2.57
2017-08-13T17:53:02.449Z,2.37
2017-08-13T17:55:36.919Z,2.63
2017-08-13T17:58:11.290Z,2.40
2017-08-13T18:00:45.400Z,2.40
2017-08-13T18:03:19.823Z,2.60
2017-08-13T18:05:54.145Z,2.33
2017-08-13T18:08:28.353Z,2.40
2017-08-13T18:11:02.597Z,3.10
2017-08-13T18:13:36.804Z,2.70
2017-08-13T18:16:11.168Z,2.40
2017-08-13T18:18:46.047Z,3.00
2017-08-13T18:21:20.462Z,2.70
2017-08-13T18:23:54.742Z,3.00
2017-08-13T18:26:29.053Z,2.87
2017-08-13T18:29:03.422Z,3.00
2017-08-13T18:31:38.046Z,2.73
2017-08-13T18:34:12.230Z,3.07
2017-08-13T18:36:46.476Z,3.03
2017-08-13T18:39:20.732Z,2.73
2017-08-13T18:41:54.935Z,2.90
2017-08-13T18:44:29.149Z,2.77
2017-08-13T18:47:03.456Z,2.80
2017-08-13T18:49:37.828Z,2.53
2017-08-13T18:52:12.165Z,2.77
2017-08-13T18:54:46.625Z,2.40
2017-08-13T18:57:20.868Z,2.33
2017-08-13T18:59:58.313Z,2.70
2017-08-13T19:02:32.482Z,2.30
2017-08-13T19:05:06.603Z,2.70
2017-08-13T19:07:41.465Z,2.60
2017-08-13T19:10:15.588Z,2.60
2017-08-13T19:12:49.816Z,3.03
2017-08-13T19:15:24.112Z,2.80
2017-08-13T19:17:58.339Z,3.10
2017-08-13T19:20:32.680Z,2.70
2017-08-13T19:23:06.830Z,2.80
2017-08-13T19:25:41.096Z,2.77
2017-08-13T19:28:15.584Z,2.83
2017-08-13T19:30:49.683Z,2.70
2017-08-13T19:33:24.123Z,3.30
2017-08-13T19:36:21.104Z,2.90
2017-08-13T19:38:55.369Z,2.70
2017-08-13T19:41:29.474Z,2.57
2017-08-13T19:44:03.654Z,3.23
2017-08-13T19:46:37.823Z,2.43
2017-08-13T19:49:12.063Z,2.70
2017-08-13T19:51:46.282Z,2.30
2017-08-13T19:54:20.347Z,2.60
2017-08-13T19:56:54.719Z,2.37
2017-08-13T19:59:29.010Z,2.30
2017-08-13T20:02:03.582Z,2.70
2017-08-13T20:04:37.945Z,2.80
2017-08-13T20:07:14.673Z,2.50
2017-08-13T20:09:48.857Z,2.80
2017-08-13T20:20:59.388Z,2.90
2017-08-13T20:23:33.669Z,2.30
2017-08-13T20:26:09.244Z,2.80
2017-08-13T20:28:44.513Z,3.30
2017-08-13T20:31:20.593Z,2.80
2017-08-13T20:33:56.934Z,2.47
2017-08-13T20:36:31.064Z,2.60
2017-08-13T20:39:05.214Z,2.97
2017-08-13T20:41:39.375Z,2.60
2017-08-13T20:52:51.303Z,2.97
2017-08-13T20:58:18.337Z,2.73
2017-08-13T21:00:52.600Z,3.30
2017-08-13T21:03:26.909Z,2.77
2017-08-13T21:08:53.648Z,2.80
2017-08-13T21:11:27.770Z,2.93
2017-08-13T21:14:02.227Z,3.50
2017-08-13T21:16:37.276Z,3.67
2017-08-13T21:19:12.241Z,3.27
2017-08-13T21:27:32.185Z,2.90
2017-08-13T21:30:06.478Z,3.00
2017-08-13T21:32:40.693Z,3.10
2017-08-13T21:35:15.730Z,2.20
2017-08-13T21:37:49.799Z,3.00
2017-08-13T21:40:24.015Z,3.03
2017-08-13T21:43:01.736Z,3.37
2017-08-13T21:48:28.116Z,4.47
2017-08-13T21:51:03.949Z,3.43
2017-08-13T21:53:40.691Z,3.90
2017-08-13T21:59:07.376Z,3.10
2017-08-13T22:07:31.211Z,2.87
2017-08-13T22:10:05.590Z,2.70
2017-08-13T22:12:39.785Z,3.17
2017-08-13T22:18:06.626Z,4.40
2017-08-13T22:20:40.840Z,3.33
2017-08-13T22:23:15.136Z,4.23
2017-08-13T22:28:41.649Z,4.17
2017-08-13T22:31:15.902Z,2.90
2017-08-13T22:33:50.010Z,3.77
2017-08-13T22:42:10.934Z,3.73
2017-08-13T22:44:45.199Z,5.30
2017-08-13T22:47:19.324Z,3.33
2017-08-13T22:49:53.636Z,6.40
2017-08-13T22:55:21.511Z,3.10
2017-08-13T22:57:55.738Z,3.20
2017-08-13T23:00:30.085Z,3.47
2017-08-13T23:03:04.356Z,3.10
2017-08-13T23:05:38.686Z,3.07
2017-08-13T23:08:12.939Z,3.73
2017-08-13T23:10:47.087Z,3.10
2017-08-13T23:13:21.318Z,3.63
2017-08-13T23:15:55.585Z,3.00
2017-08-13T23:18:29.792Z,3.70
2017-08-13T23:21:04.016Z,3.83
2017-08-13T23:23:38.325Z,3.80
2017-08-13T23:26:12.638Z,3.30
2017-08-13T23:28:46.817Z,3.83
2017-08-13T23:31:20.936Z,3.47
2017-08-13T23:33:55.015Z,3.10
2017-08-13T23:36:29.253Z,3.30
2017-08-13T23:39:03.414Z,3.13
2017-08-13T23:41:37.564Z,3.17
2017-08-13T23:44:11.835Z,3.13
2017-08-13T23:46:46.000Z,2.87
2017-08-13T23:49:20.265Z,3.10
2017-08-13T23:51:54.364Z,2.80
2017-08-13T23:54:28.640Z,3.00
2017-08-13T23:57:02.856Z,3.27
2017-08-13T23:59:36.994Z,2.77
